sensor_id;sensor_type;location;lat;lon;timestamp;temperature;humidity
21662;DHT22;10992;48.170;8.596;2023-01-19T00:00:52;-5.90;99.90
21662;DHT22;10992;48.170;8.596;2023-01-19T00:03:18;-6.00;99.90
21662;DHT22;10992;48.170;8.596;2023-01-19T00:05:46;-5.90;99.90
21662;DHT22;10992;48.170;8.596;2023-01-19T00:08:13;-5.90;99.90
21662;DHT22;10992;48.170;8.596;2023-01-19T00:10:48;-6.00;99.90
21662;DHT22;10992;48.170;8.596;2023-01-19T00:13:16;-6.10;99.90
21662;DHT22;10992;48.170;8.596;2023-01-19T00:15:43;-6.10;99.90
21662;DHT22;10992;48.170;8.596;2023-01-19T00:18:10;-6.10;99.90
21662;DHT22;10992;48.170;8.596;2023-01-19T00:20:38;-6.10;99.90
21662;DHT22;10992;48.170;8.596;2023-01-19T00:23:06;-6.10;99.90
21662;DHT22;10992;48.170;8.596;2023-01-19T00:25:34;-6.20;99.90
21662;DHT22;10992;48.170;8.596;2023-01-19T00:28:02;-6.30;99.90
21662;DHT22;10992;48.170;8.596;2023-01-19T00:30:29;-6.50;99.90
21662;DHT22;10992;48.170;8.596;2023-01-19T00:32:56;-6.60;99.90
21662;DHT22;10992;48.170;8.596;2023-01-19T00:35:24;-6.50;99.90
21662;DHT22;10992;48.170;8.596;2023-01-19T00:37:51;-6.40;99.90
21662;DHT22;10992;48.170;8.596;2023-01-19T00:40:18;-6.40;99.90
21662;DHT22;10992;48.170;8.596;2023-01-19T00:42:44;-6.40;99.90
21662;DHT22;10992;48.170;8.596;2023-01-19T00:45:16;-6.50;99.90
21662;DHT22;10992;48.170;8.596;2023-01-19T00:47:44;-6.60;99.90
21662;DHT22;10992;48.170;8.596;2023-01-19T00:50:13;-6.80;99.90
21662;DHT22;10992;48.170;8.596;2023-01-19T00:52:40;-6.90;99.90
21662;DHT22;10992;48.170;8.596;2023-01-19T00:55:08;-7.00;99.90
21662;DHT22;10992;48.170;8.596;2023-01-19T00:57:36;-7.00;99.90
21662;DHT22;10992;48.170;8.596;2023-01-19T01:00:09;-7.00;99.90
21662;DHT22;10992;48.170;8.596;2023-01-19T01:02:38;-6.90;99.90
21662;DHT22;10992;48.170;8.596;2023-01-19T01:05:06;-6.80;99.90
21662;DHT22;10992;48.170;8.596;2023-01-19T01:07:34;-6.90;99.90
21662;DHT22;10992;48.170;8.596;2023-01-19T01:10:14;-6.80;99.90
21662;DHT22;10992;48.170;8.596;2023-01-19T01:12:42;-6.80;99.90
21662;DHT22;10992;48.170;8.596;2023-01-19T01:15:24;-6.90;99.90
21662;DHT22;10992;48.170;8.596;2023-01-19T01:17:52;-7.10;99.90
21662;DHT22;10992;48.170;8.596;2023-01-19T01:20:25;-7.20;99.90
21662;DHT22;10992;48.170;8.596;2023-01-19T01:22:54;-7.10;99.90
21662;DHT22;10992;48.170;8.596;2023-01-19T01:25:22;-7.30;99.90
21662;DHT22;10992;48.170;8.596;2023-01-19T01:27:50;-7.50;99.90
21662;DHT22;10992;48.170;8.596;2023-01-19T01:30:18;-7.60;99.90
21662;DHT22;10992;48.170;8.596;2023-01-19T01:32:45;-7.50;99.90
21662;DHT22;10992;48.170;8.596;2023-01-19T01:35:12;-7.60;99.90
21662;DHT22;10992;48.170;8.596;2023-01-19T01:37:40;-7.60;99.90
21662;DHT22;10992;48.170;8.596;2023-01-19T01:40:11;-7.30;99.90
21662;DHT22;10992;48.170;8.596;2023-01-19T01:42:38;-7.30;99.90
21662;DHT22;10992;48.170;8.596;2023-01-19T01:45:29;-7.50;99.90
21662;DHT22;10992;48.170;8.596;2023-01-19T01:50:44;-7.80;99.90
21662;DHT22;10992;48.170;8.596;2023-01-19T01:53:33;-7.90;99.90
21662;DHT22;10992;48.170;8.596;2023-01-19T01:56:03;-7.90;99.90
21662;DHT22;10992;48.170;8.596;2023-01-19T02:06:56;-7.80;99.90
21662;DHT22;10992;48.170;8.596;2023-01-19T02:09:44;-7.90;99.90
21662;DHT22;10992;48.170;8.596;2023-01-19T02:12:29;-8.00;99.90
21662;DHT22;10992;48.170;8.596;2023-01-19T02:15:17;-8.10;99.90
21662;DHT22;10992;48.170;8.596;2023-01-19T02:17:45;-8.00;99.90
21662;DHT22;10992;48.170;8.596;2023-01-19T02:20:13;-8.00;99.90
21662;DHT22;10992;48.170;8.596;2023-01-19T02:22:47;-8.00;99.90
21662;DHT22;10992;48.170;8.596;2023-01-19T02:25:15;-8.10;99.90
21662;DHT22;10992;48.170;8.596;2023-01-19T02:27:44;-8.20;99.90
21662;DHT22;10992;48.170;8.596;2023-01-19T02:30:12;-8.20;99.90
21662;DHT22;10992;48.170;8.596;2023-01-19T02:32:39;-8.30;99.90
21662;DHT22;10992;48.170;8.596;2023-01-19T02:35:06;-8.30;99.90
21662;DHT22;10992;48.170;8.596;2023-01-19T02:37:35;-8.30;99.90
21662;DHT22;10992;48.170;8.596;2023-01-19T02:40:07;-8.20;99.90
21662;DHT22;10992;48.170;8.596;2023-01-19T02:42:45;-8.00;99.90
21662;DHT22;10992;48.170;8.596;2023-01-19T02:45:14;-7.70;99.90
21662;DHT22;10992;48.170;8.596;2023-01-19T02:47:45;-7.80;99.90
21662;DHT22;10992;48.170;8.596;2023-01-19T02:58:47;-8.00;99.90
21662;DHT22;10992;48.170;8.596;2023-01-19T03:01:31;-8.10;99.90
21662;DHT22;10992;48.170;8.596;2023-01-19T03:07:10;-8.20;99.90
21662;DHT22;10992;48.170;8.596;2023-01-19T03:10:17;-8.20;99.90
21662;DHT22;10992;48.170;8.596;2023-01-19T03:12:47;-8.20;99.90
21662;DHT22;10992;48.170;8.596;2023-01-19T03:15:43;-8.20;99.90
21662;DHT22;10992;48.170;8.596;2023-01-19T03:18:19;-8.20;99.90
21662;DHT22;10992;48.170;8.596;2023-01-19T03:20:48;-8.30;99.90
21662;DHT22;10992;48.170;8.596;2023-01-19T03:23:16;-8.30;99.90
21662;DHT22;10992;48.170;8.596;2023-01-19T03:25:46;-8.20;99.90
21662;DHT22;10992;48.170;8.596;2023-01-19T03:28:18;-8.00;99.90
21662;DHT22;10992;48.170;8.596;2023-01-19T03:30:57;-7.70;99.90
21662;DHT22;10992;48.170;8.596;2023-01-19T03:33:36;-7.50;99.90
21662;DHT22;10992;48.170;8.596;2023-01-19T03:36:08;-7.50;99.90
21662;DHT22;10992;48.170;8.596;2023-01-19T03:38:41;-7.60;99.90
21662;DHT22;10992;48.170;8.596;2023-01-19T03:41:12;-7.60;99.90
21662;DHT22;10992;48.170;8.596;2023-01-19T03:43:42;-7.80;99.90
21662;DHT22;10992;48.170;8.596;2023-01-19T03:46:10;-7.80;99.90
21662;DHT22;10992;48.170;8.596;2023-01-19T03:48:38;-7.70;99.90
21662;DHT22;10992;48.170;8.596;2023-01-19T03:51:07;-7.60;99.90
21662;DHT22;10992;48.170;8.596;2023-01-19T03:53:35;-7.80;99.90
21662;DHT22;10992;48.170;8.596;2023-01-19T03:56:02;-8.00;99.90
21662;DHT22;10992;48.170;8.596;2023-01-19T03:58:29;-8.10;99.90
21662;DHT22;10992;48.170;8.596;2023-01-19T04:00:56;-8.10;99.90
21662;DHT22;10992;48.170;8.596;2023-01-19T04:03:23;-7.90;99.90
21662;DHT22;10992;48.170;8.596;2023-01-19T04:05:50;-7.60;99.90
21662;DHT22;10992;48.170;8.596;2023-01-19T04:08:17;-7.40;99.90
21662;DHT22;10992;48.170;8.596;2023-01-19T04:10:45;-7.40;99.90
21662;DHT22;10992;48.170;8.596;2023-01-19T04:13:12;-6.90;99.90
21662;DHT22;10992;48.170;8.596;2023-01-19T04:15:39;-7.30;99.90
21662;DHT22;10992;48.170;8.596;2023-01-19T04:18:05;-7.40;99.90
21662;DHT22;10992;48.170;8.596;2023-01-19T04:20:32;-7.40;99.90
21662;DHT22;10992;48.170;8.596;2023-01-19T04:23:00;-7.40;99.90
21662;DHT22;10992;48.170;8.596;2023-01-19T04:25:27;-7.60;99.90
21662;DHT22;10992;48.170;8.596;2023-01-19T04:27:55;-7.70;99.90
21662;DHT22;10992;48.170;8.596;2023-01-19T04:30:24;-7.70;99.90
21662;DHT22;10992;48.170;8.596;2023-01-19T04:32:51;-7.70;99.90
21662;DHT22;10992;48.170;8.596;2023-01-19T04:35:19;-7.50;99.90
21662;DHT22;10992;48.170;8.596;2023-01-19T04:37:47;-7.40;99.90
21662;DHT22;10992;48.170;8.596;2023-01-19T04:40:14;-7.40;99.90
21662;DHT22;10992;48.170;8.596;2023-01-19T04:42:43;-7.50;99.90
21662;DHT22;10992;48.170;8.596;2023-01-19T04:45:11;-7.50;99.90
21662;DHT22;10992;48.170;8.596;2023-01-19T04:47:39;-7.50;99.90
21662;DHT22;10992;48.170;8.596;2023-01-19T04:50:06;-7.50;99.90
21662;DHT22;10992;48.170;8.596;2023-01-19T04:52:34;-7.50;99.90
21662;DHT22;10992;48.170;8.596;2023-01-19T04:55:03;-7.50;99.90
21662;DHT22;10992;48.170;8.596;2023-01-19T04:57:30;-7.50;99.90
21662;DHT22;10992;48.170;8.596;2023-01-19T04:59:57;-7.50;99.90
21662;DHT22;10992;48.170;8.596;2023-01-19T05:02:25;-7.60;99.90
21662;DHT22;10992;48.170;8.596;2023-01-19T05:04:51;-7.40;99.90
21662;DHT22;10992;48.170;8.596;2023-01-19T05:07:18;-7.40;99.90
21662;DHT22;10992;48.170;8.596;2023-01-19T05:09:45;-7.40;99.90
21662;DHT22;10992;48.170;8.596;2023-01-19T05:12:12;-7.70;99.90
21662;DHT22;10992;48.170;8.596;2023-01-19T05:14:39;-7.70;99.90
21662;DHT22;10992;48.170;8.596;2023-01-19T05:17:06;-7.70;99.90
21662;DHT22;10992;48.170;8.596;2023-01-19T05:19:32;-7.60;99.90
21662;DHT22;10992;48.170;8.596;2023-01-19T05:22:01;-7.60;99.90
21662;DHT22;10992;48.170;8.596;2023-01-19T05:24:29;-7.60;99.90
21662;DHT22;10992;48.170;8.596;2023-01-19T05:26:56;-7.60;99.90
21662;DHT22;10992;48.170;8.596;2023-01-19T05:29:24;-7.60;99.90
21662;DHT22;10992;48.170;8.596;2023-01-19T05:31:50;-7.60;99.90
21662;DHT22;10992;48.170;8.596;2023-01-19T05:34:18;-7.70;99.90
21662;DHT22;10992;48.170;8.596;2023-01-19T05:36:44;-7.70;99.90
21662;DHT22;10992;48.170;8.596;2023-01-19T05:39:13;-7.70;99.90
21662;DHT22;10992;48.170;8.596;2023-01-19T05:41:40;-7.60;99.90
21662;DHT22;10992;48.170;8.596;2023-01-19T05:44:09;-7.60;99.90
21662;DHT22;10992;48.170;8.596;2023-01-19T05:46:35;-7.70;99.90
21662;DHT22;10992;48.170;8.596;2023-01-19T05:49:03;-7.80;99.90
21662;DHT22;10992;48.170;8.596;2023-01-19T05:51:31;-7.90;99.90
21662;DHT22;10992;48.170;8.596;2023-01-19T05:54:00;-8.00;99.90
21662;DHT22;10992;48.170;8.596;2023-01-19T05:56:28;-7.90;99.90
21662;DHT22;10992;48.170;8.596;2023-01-19T05:58:55;-7.90;99.90
21662;DHT22;10992;48.170;8.596;2023-01-19T06:01:22;-6.90;99.90
21662;DHT22;10992;48.170;8.596;2023-01-19T06:03:49;-7.60;99.90
21662;DHT22;10992;48.170;8.596;2023-01-19T06:06:16;-7.50;99.90
21662;DHT22;10992;48.170;8.596;2023-01-19T06:08:44;-7.60;99.90
21662;DHT22;10992;48.170;8.596;2023-01-19T06:11:11;-7.60;99.90
21662;DHT22;10992;48.170;8.596;2023-01-19T06:13:38;-7.70;99.90
21662;DHT22;10992;48.170;8.596;2023-01-19T06:16:08;-7.70;99.90
21662;DHT22;10992;48.170;8.596;2023-01-19T06:18:35;-7.80;99.90
21662;DHT22;10992;48.170;8.596;2023-01-19T06:21:07;-7.90;99.90
21662;DHT22;10992;48.170;8.596;2023-01-19T06:23:35;-8.00;99.90
21662;DHT22;10992;48.170;8.596;2023-01-19T06:26:02;-8.20;99.90
21662;DHT22;10992;48.170;8.596;2023-01-19T06:28:29;-8.30;99.90
21662;DHT22;10992;48.170;8.596;2023-01-19T06:30:56;-5.40;99.90
21662;DHT22;10992;48.170;8.596;2023-01-19T06:33:24;-7.00;99.90
21662;DHT22;10992;48.170;8.596;2023-01-19T06:35:51;-6.70;99.90
21662;DHT22;10992;48.170;8.596;2023-01-19T06:38:18;-6.50;99.90
21662;DHT22;10992;48.170;8.596;2023-01-19T06:40:54;-6.70;99.90
21662;DHT22;10992;48.170;8.596;2023-01-19T06:43:21;-7.10;99.90
21662;DHT22;10992;48.170;8.596;2023-01-19T06:45:48;-7.40;99.90
21662;DHT22;10992;48.170;8.596;2023-01-19T06:48:16;-7.80;99.90
21662;DHT22;10992;48.170;8.596;2023-01-19T06:50:46;-8.00;99.90
21662;DHT22;10992;48.170;8.596;2023-01-19T06:53:15;-8.20;99.90
21662;DHT22;10992;48.170;8.596;2023-01-19T06:55:42;-8.20;99.90
21662;DHT22;10992;48.170;8.596;2023-01-19T06:58:10;-8.20;99.90
21662;DHT22;10992;48.170;8.596;2023-01-19T07:00:37;-8.30;99.90
21662;DHT22;10992;48.170;8.596;2023-01-19T07:03:07;-8.40;99.90
21662;DHT22;10992;48.170;8.596;2023-01-19T07:05:35;-8.40;99.90
21662;DHT22;10992;48.170;8.596;2023-01-19T07:08:02;-8.30;99.90
21662;DHT22;10992;48.170;8.596;2023-01-19T07:10:29;-8.10;99.90
21662;DHT22;10992;48.170;8.596;2023-01-19T07:13:16;-7.90;99.90
21662;DHT22;10992;48.170;8.596;2023-01-19T07:15:43;-7.90;99.90
21662;DHT22;10992;48.170;8.596;2023-01-19T07:18:10;-7.80;99.90
21662;DHT22;10992;48.170;8.596;2023-01-19T07:20:37;-7.70;99.90
21662;DHT22;10992;48.170;8.596;2023-01-19T07:23:04;-7.60;99.90
21662;DHT22;10992;48.170;8.596;2023-01-19T07:25:31;-7.50;99.90
21662;DHT22;10992;48.170;8.596;2023-01-19T07:27:58;-7.50;99.90
21662;DHT22;10992;48.170;8.596;2023-01-19T07:30:25;-7.50;99.90
21662;DHT22;10992;48.170;8.596;2023-01-19T07:32:56;-7.70;99.90
21662;DHT22;10992;48.170;8.596;2023-01-19T07:35:24;-7.80;99.90
21662;DHT22;10992;48.170;8.596;2023-01-19T07:37:51;-7.70;99.90
21662;DHT22;10992;48.170;8.596;2023-01-19T07:40:18;-7.40;99.90
21662;DHT22;10992;48.170;8.596;2023-01-19T07:42:49;-7.30;99.90
21662;DHT22;10992;48.170;8.596;2023-01-19T07:45:17;-7.20;99.90
21662;DHT22;10992;48.170;8.596;2023-01-19T07:47:46;-7.00;99.90
21662;DHT22;10992;48.170;8.596;2023-01-19T07:50:20;-6.80;99.90
21662;DHT22;10992;48.170;8.596;2023-01-19T07:52:50;-6.70;99.90
21662;DHT22;10992;48.170;8.596;2023-01-19T07:55:20;-6.50;99.90
21662;DHT22;10992;48.170;8.596;2023-01-19T07:57:51;-6.00;99.90
21662;DHT22;10992;48.170;8.596;2023-01-19T08:00:19;-5.40;99.90
21662;DHT22;10992;48.170;8.596;2023-01-19T08:02:48;-4.80;99.90
21662;DHT22;10992;48.170;8.596;2023-01-19T08:05:18;-4.30;99.90
21662;DHT22;10992;48.170;8.596;2023-01-19T08:07:46;-4.00;99.90
21662;DHT22;10992;48.170;8.596;2023-01-19T08:10:14;-3.90;99.90
21662;DHT22;10992;48.170;8.596;2023-01-19T08:12:41;-3.50;99.90
21662;DHT22;10992;48.170;8.596;2023-01-19T08:15:09;-3.10;99.90
21662;DHT22;10992;48.170;8.596;2023-01-19T08:17:36;-2.80;99.90
21662;DHT22;10992;48.170;8.596;2023-01-19T08:20:04;-2.80;99.90
21662;DHT22;10992;48.170;8.596;2023-01-19T08:22:32;-2.80;99.90
21662;DHT22;10992;48.170;8.596;2023-01-19T08:24:59;-2.70;99.90
21662;DHT22;10992;48.170;8.596;2023-01-19T08:27:25;-2.20;99.90
21662;DHT22;10992;48.170;8.596;2023-01-19T08:29:52;-2.50;99.90
21662;DHT22;10992;48.170;8.596;2023-01-19T08:32:20;-2.90;99.90
21662;DHT22;10992;48.170;8.596;2023-01-19T08:34:47;-3.40;99.90
21662;DHT22;10992;48.170;8.596;2023-01-19T08:37:14;-3.60;99.90
21662;DHT22;10992;48.170;8.596;2023-01-19T08:39:41;-3.80;99.90
21662;DHT22;10992;48.170;8.596;2023-01-19T08:42:08;-3.80;99.90
21662;DHT22;10992;48.170;8.596;2023-01-19T08:44:35;-4.00;99.90
21662;DHT22;10992;48.170;8.596;2023-01-19T08:47:07;-3.90;99.90
21662;DHT22;10992;48.170;8.596;2023-01-19T08:49:35;-3.90;99.90
21662;DHT22;10992;48.170;8.596;2023-01-19T08:52:02;-4.00;99.90
21662;DHT22;10992;48.170;8.596;2023-01-19T08:54:29;-4.10;99.90
21662;DHT22;10992;48.170;8.596;2023-01-19T08:56:56;-4.10;99.90
21662;DHT22;10992;48.170;8.596;2023-01-19T08:59:23;-4.00;99.90
21662;DHT22;10992;48.170;8.596;2023-01-19T09:01:50;-4.00;99.90
21662;DHT22;10992;48.170;8.596;2023-01-19T09:04:17;-4.00;99.90
21662;DHT22;10992;48.170;8.596;2023-01-19T09:06:44;-4.00;99.90
21662;DHT22;10992;48.170;8.596;2023-01-19T09:09:10;-3.90;99.90
21662;DHT22;10992;48.170;8.596;2023-01-19T09:11:38;-3.80;99.90
21662;DHT22;10992;48.170;8.596;2023-01-19T09:14:05;-3.70;99.90
21662;DHT22;10992;48.170;8.596;2023-01-19T09:16:32;-3.70;99.90
21662;DHT22;10992;48.170;8.596;2023-01-19T09:18:59;-3.70;99.90
21662;DHT22;10992;48.170;8.596;2023-01-19T09:21:26;-3.60;99.90
21662;DHT22;10992;48.170;8.596;2023-01-19T09:23:54;-3.60;99.90
21662;DHT22;10992;48.170;8.596;2023-01-19T09:26:22;-3.50;99.90
21662;DHT22;10992;48.170;8.596;2023-01-19T09:28:49;-3.30;99.90
21662;DHT22;10992;48.170;8.596;2023-01-19T09:31:16;-3.30;99.90
21662;DHT22;10992;48.170;8.596;2023-01-19T09:33:43;-3.10;99.90
21662;DHT22;10992;48.170;8.596;2023-01-19T09:36:10;-3.20;99.90
21662;DHT22;10992;48.170;8.596;2023-01-19T09:38:37;-3.20;99.90
21662;DHT22;10992;48.170;8.596;2023-01-19T09:41:14;-3.40;99.90
21662;DHT22;10992;48.170;8.596;2023-01-19T09:43:46;-3.30;99.90
21662;DHT22;10992;48.170;8.596;2023-01-19T09:49:10;-3.20;99.90
21662;DHT22;10992;48.170;8.596;2023-01-19T09:51:40;-2.90;99.90
21662;DHT22;10992;48.170;8.596;2023-01-19T09:56:42;-2.70;99.90
21662;DHT22;10992;48.170;8.596;2023-01-19T09:59:19;-2.70;99.90
21662;DHT22;10992;48.170;8.596;2023-01-19T10:10:31;-2.10;99.90
21662;DHT22;10992;48.170;8.596;2023-01-19T10:13:09;-2.10;99.90
21662;DHT22;10992;48.170;8.596;2023-01-19T10:18:35;-1.40;99.90
21662;DHT22;10992;48.170;8.596;2023-01-19T10:21:30;-1.30;99.90
21662;DHT22;10992;48.170;8.596;2023-01-19T10:24:28;-1.60;99.90
21662;DHT22;10992;48.170;8.596;2023-01-19T10:26:56;-1.10;99.90
21662;DHT22;10992;48.170;8.596;2023-01-19T10:29:31;-1.10;99.90
21662;DHT22;10992;48.170;8.596;2023-01-19T10:32:10;-1.00;99.90
21662;DHT22;10992;48.170;8.596;2023-01-19T10:34:38;-0.90;99.90
21662;DHT22;10992;48.170;8.596;2023-01-19T10:37:33;-0.90;99.90
21662;DHT22;10992;48.170;8.596;2023-01-19T10:42:37;-1.10;99.90
21662;DHT22;10992;48.170;8.596;2023-01-19T10:47:43;-1.60;99.90
21662;DHT22;10992;48.170;8.596;2023-01-19T10:50:31;-1.60;99.90
21662;DHT22;10992;48.170;8.596;2023-01-19T10:53:00;-1.30;99.90
21662;DHT22;10992;48.170;8.596;2023-01-19T10:55:33;-1.00;99.90
21662;DHT22;10992;48.170;8.596;2023-01-19T10:58:01;-0.80;99.90
21662;DHT22;10992;48.170;8.596;2023-01-19T11:00:29;-0.60;99.90
21662;DHT22;10992;48.170;8.596;2023-01-19T11:02:56;-0.10;99.90
21662;DHT22;10992;48.170;8.596;2023-01-19T11:05:25;0.30;99.90
21662;DHT22;10992;48.170;8.596;2023-01-19T11:07:53;0.50;99.90
21662;DHT22;10992;48.170;8.596;2023-01-19T11:10:23;1.00;99.90
21662;DHT22;10992;48.170;8.596;2023-01-19T11:13:11;1.70;99.90
21662;DHT22;10992;48.170;8.596;2023-01-19T11:15:53;1.80;99.90
21662;DHT22;10992;48.170;8.596;2023-01-19T11:20:54;1.40;99.90
21662;DHT22;10992;48.170;8.596;2023-01-19T11:26:01;0.40;99.90
21662;DHT22;10992;48.170;8.596;2023-01-19T11:28:33;0.20;99.90
21662;DHT22;10992;48.170;8.596;2023-01-19T11:31:15;0.10;99.90
21662;DHT22;10992;48.170;8.596;2023-01-19T11:36:23;-0.40;99.90
21662;DHT22;10992;48.170;8.596;2023-01-19T11:38:52;-0.50;99.90
21662;DHT22;10992;48.170;8.596;2023-01-19T11:44:17;-0.30;99.90
21662;DHT22;10992;48.170;8.596;2023-01-19T11:46:50;0.00;99.90
21662;DHT22;10992;48.170;8.596;2023-01-19T11:50:00;0.00;99.90
21662;DHT22;10992;48.170;8.596;2023-01-19T11:52:42;0.30;99.90
21662;DHT22;10992;48.170;8.596;2023-01-19T11:55:18;0.30;99.90
21662;DHT22;10992;48.170;8.596;2023-01-19T11:57:49;0.30;99.90
21662;DHT22;10992;48.170;8.596;2023-01-19T12:00:40;0.50;99.90
21662;DHT22;10992;48.170;8.596;2023-01-19T12:03:33;0.30;99.90
21662;DHT22;10992;48.170;8.596;2023-01-19T12:08:36;0.00;99.90
21662;DHT22;10992;48.170;8.596;2023-01-19T12:11:08;-0.30;99.90
21662;DHT22;10992;48.170;8.596;2023-01-19T12:13:39;-0.20;99.90
21662;DHT22;10992;48.170;8.596;2023-01-19T12:16:11;-0.30;99.90
21662;DHT22;10992;48.170;8.596;2023-01-19T12:18:42;-0.40;99.90
21662;DHT22;10992;48.170;8.596;2023-01-19T12:21:10;-0.50;99.90
21662;DHT22;10992;48.170;8.596;2023-01-19T12:26:27;-0.40;99.90
21662;DHT22;10992;48.170;8.596;2023-01-19T12:29:01;-0.50;99.90
21662;DHT22;10992;48.170;8.596;2023-01-19T12:31:29;-0.50;99.90
21662;DHT22;10992;48.170;8.596;2023-01-19T12:36:55;-0.60;99.90
21662;DHT22;10992;48.170;8.596;2023-01-19T12:39:32;-0.60;99.90
21662;DHT22;10992;48.170;8.596;2023-01-19T12:42:10;-0.60;99.90
21662;DHT22;10992;48.170;8.596;2023-01-19T12:44:39;-0.50;99.90
21662;DHT22;10992;48.170;8.596;2023-01-19T12:49:44;-0.60;99.90
21662;DHT22;10992;48.170;8.596;2023-01-19T12:55:00;-0.60;99.90
21662;DHT22;10992;48.170;8.596;2023-01-19T13:02:57;-0.60;99.90
21662;DHT22;10992;48.170;8.596;2023-01-19T13:15:52;-0.80;99.90
21662;DHT22;10992;48.170;8.596;2023-01-19T13:18:32;-0.90;99.90
21662;DHT22;10992;48.170;8.596;2023-01-19T13:21:06;-1.00;99.90
21662;DHT22;10992;48.170;8.596;2023-01-19T13:26:15;-0.90;99.90
21662;DHT22;10992;48.170;8.596;2023-01-19T13:28:45;-0.90;99.90
21662;DHT22;10992;48.170;8.596;2023-01-19T13:31:17;-1.00;99.90
21662;DHT22;10992;48.170;8.596;2023-01-19T13:33:57;-1.10;99.90
21662;DHT22;10992;48.170;8.596;2023-01-19T13:36:34;-1.20;99.90
21662;DHT22;10992;48.170;8.596;2023-01-19T13:39:05;-1.20;99.90
21662;DHT22;10992;48.170;8.596;2023-01-19T13:41:38;-1.20;99.90
21662;DHT22;10992;48.170;8.596;2023-01-19T13:44:26;-1.30;99.90
21662;DHT22;10992;48.170;8.596;2023-01-19T13:46:54;-1.40;99.90
21662;DHT22;10992;48.170;8.596;2023-01-19T13:49:30;-1.40;99.90
21662;DHT22;10992;48.170;8.596;2023-01-19T13:52:20;-1.50;99.90
21662;DHT22;10992;48.170;8.596;2023-01-19T13:54:59;-1.50;99.90
21662;DHT22;10992;48.170;8.596;2023-01-19T13:57:31;-1.50;99.90
21662;DHT22;10992;48.170;8.596;2023-01-19T14:02:39;-1.60;99.90
21662;DHT22;10992;48.170;8.596;2023-01-19T14:05:24;-1.60;99.90
21662;DHT22;10992;48.170;8.596;2023-01-19T14:10:40;-1.50;99.90
21662;DHT22;10992;48.170;8.596;2023-01-19T14:15:42;-1.60;99.90
21662;DHT22;10992;48.170;8.596;2023-01-19T14:26:03;-1.50;99.90
21662;DHT22;10992;48.170;8.596;2023-01-19T14:28:42;-1.50;99.90
21662;DHT22;10992;48.170;8.596;2023-01-19T14:31:22;-1.50;99.90
21662;DHT22;10992;48.170;8.596;2023-01-19T14:33:51;-1.40;99.90
21662;DHT22;10992;48.170;8.596;2023-01-19T14:38:49;-1.50;99.90
21662;DHT22;10992;48.170;8.596;2023-01-19T14:41:32;-1.60;99.90
21662;DHT22;10992;48.170;8.596;2023-01-19T14:44:01;-1.60;99.90
21662;DHT22;10992;48.170;8.596;2023-01-19T14:46:28;-1.60;99.90
21662;DHT22;10992;48.170;8.596;2023-01-19T14:49:01;-1.60;99.90
21662;DHT22;10992;48.170;8.596;2023-01-19T14:51:28;-1.60;99.90
21662;DHT22;10992;48.170;8.596;2023-01-19T14:53:58;-1.60;99.90
21662;DHT22;10992;48.170;8.596;2023-01-19T14:56:30;-1.60;99.90
21662;DHT22;10992;48.170;8.596;2023-01-19T14:58:58;-1.60;99.90
21662;DHT22;10992;48.170;8.596;2023-01-19T15:01:27;-1.60;99.90
21662;DHT22;10992;48.170;8.596;2023-01-19T15:03:55;-1.60;99.90
21662;DHT22;10992;48.170;8.596;2023-01-19T15:06:25;-1.60;99.90
21662;DHT22;10992;48.170;8.596;2023-01-19T15:08:52;-1.60;99.90
21662;DHT22;10992;48.170;8.596;2023-01-19T15:11:23;-1.70;99.90
21662;DHT22;10992;48.170;8.596;2023-01-19T15:13:51;-1.70;99.90
21662;DHT22;10992;48.170;8.596;2023-01-19T15:16:18;-1.70;99.90
21662;DHT22;10992;48.170;8.596;2023-01-19T15:18:48;-1.70;99.90
21662;DHT22;10992;48.170;8.596;2023-01-19T15:21:17;-1.70;99.90
21662;DHT22;10992;48.170;8.596;2023-01-19T15:23:45;-1.60;99.90
21662;DHT22;10992;48.170;8.596;2023-01-19T15:26:16;-1.70;99.90
21662;DHT22;10992;48.170;8.596;2023-01-19T15:28:43;-1.70;99.90
21662;DHT22;10992;48.170;8.596;2023-01-19T15:31:16;-1.80;99.90
21662;DHT22;10992;48.170;8.596;2023-01-19T15:33:44;-1.80;99.90
21662;DHT22;10992;48.170;8.596;2023-01-19T15:36:17;-1.80;99.90
21662;DHT22;10992;48.170;8.596;2023-01-19T15:38:45;-1.80;99.90
21662;DHT22;10992;48.170;8.596;2023-01-19T15:41:22;-1.80;99.90
21662;DHT22;10992;48.170;8.596;2023-01-19T15:43:50;-1.90;99.90
21662;DHT22;10992;48.170;8.596;2023-01-19T15:46:18;-1.90;99.90
21662;DHT22;10992;48.170;8.596;2023-01-19T15:48:47;-1.90;99.90
21662;DHT22;10992;48.170;8.596;2023-01-19T15:51:16;-1.90;99.90
21662;DHT22;10992;48.170;8.596;2023-01-19T15:53:44;-2.00;99.90
21662;DHT22;10992;48.170;8.596;2023-01-19T15:56:20;-2.00;99.90
21662;DHT22;10992;48.170;8.596;2023-01-19T15:58:47;-2.00;99.90
21662;DHT22;10992;48.170;8.596;2023-01-19T16:01:26;-2.00;99.90
21662;DHT22;10992;48.170;8.596;2023-01-19T16:04:02;-2.00;99.90
21662;DHT22;10992;48.170;8.596;2023-01-19T16:06:30;-2.00;99.90
21662;DHT22;10992;48.170;8.596;2023-01-19T16:08:57;-2.00;99.90
21662;DHT22;10992;48.170;8.596;2023-01-19T16:11:32;-2.00;99.90
21662;DHT22;10992;48.170;8.596;2023-01-19T16:14:00;-2.00;99.90
21662;DHT22;10992;48.170;8.596;2023-01-19T16:16:27;-2.10;99.90
21662;DHT22;10992;48.170;8.596;2023-01-19T16:18:55;-2.10;99.90
21662;DHT22;10992;48.170;8.596;2023-01-19T16:21:22;-2.10;99.90
21662;DHT22;10992;48.170;8.596;2023-01-19T16:23:50;-2.20;99.90
21662;DHT22;10992;48.170;8.596;2023-01-19T16:26:29;-2.20;99.90
21662;DHT22;10992;48.170;8.596;2023-01-19T16:29:00;-2.20;99.90
21662;DHT22;10992;48.170;8.596;2023-01-19T16:31:27;-2.20;99.90
21662;DHT22;10992;48.170;8.596;2023-01-19T16:33:55;-2.20;99.90
21662;DHT22;10992;48.170;8.596;2023-01-19T16:36:30;-2.20;99.90
21662;DHT22;10992;48.170;8.596;2023-01-19T16:38:58;-2.30;99.90
21662;DHT22;10992;48.170;8.596;2023-01-19T16:41:27;-2.30;99.90
21662;DHT22;10992;48.170;8.596;2023-01-19T16:43:55;-2.40;99.90
21662;DHT22;10992;48.170;8.596;2023-01-19T16:46:49;-2.40;99.90
21662;DHT22;10992;48.170;8.596;2023-01-19T16:49:24;-2.50;99.90
21662;DHT22;10992;48.170;8.596;2023-01-19T16:51:55;-2.60;99.90
21662;DHT22;10992;48.170;8.596;2023-01-19T16:54:24;-2.70;99.90
21662;DHT22;10992;48.170;8.596;2023-01-19T16:56:52;-2.70;99.90
21662;DHT22;10992;48.170;8.596;2023-01-19T16:59:20;-2.70;99.90
21662;DHT22;10992;48.170;8.596;2023-01-19T17:01:48;-2.70;99.90
21662;DHT22;10992;48.170;8.596;2023-01-19T17:04:20;-2.70;99.90
21662;DHT22;10992;48.170;8.596;2023-01-19T17:06:47;-2.80;99.90
21662;DHT22;10992;48.170;8.596;2023-01-19T17:09:16;-2.80;99.90
21662;DHT22;10992;48.170;8.596;2023-01-19T17:11:43;-2.80;99.90
21662;DHT22;10992;48.170;8.596;2023-01-19T17:14:16;-2.70;99.90
21662;DHT22;10992;48.170;8.596;2023-01-19T17:16:46;-2.90;99.90
21662;DHT22;10992;48.170;8.596;2023-01-19T17:19:16;-2.90;99.90
21662;DHT22;10992;48.170;8.596;2023-01-19T17:21:44;-2.90;99.90
21662;DHT22;10992;48.170;8.596;2023-01-19T17:24:11;-3.00;99.90
21662;DHT22;10992;48.170;8.596;2023-01-19T17:26:38;-2.90;99.90
21662;DHT22;10992;48.170;8.596;2023-01-19T17:29:08;-3.00;99.90
21662;DHT22;10992;48.170;8.596;2023-01-19T17:31:36;-3.00;99.90
21662;DHT22;10992;48.170;8.596;2023-01-19T17:34:03;-2.90;99.90
21662;DHT22;10992;48.170;8.596;2023-01-19T17:36:31;-2.80;99.90
21662;DHT22;10992;48.170;8.596;2023-01-19T17:39:03;-2.70;99.90